createdAt,value
2023-01-20T00:31:40.848Z,1001.12
2023-01-20T00:32:21.303Z,1001.11
2023-01-20T00:33:01.697Z,1001.15
2023-01-20T00:33:42.196Z,1001.11
2023-01-20T00:34:22.681Z,1001.13
2023-01-20T00:35:03.177Z,1001.15
2023-01-20T00:35:43.679Z,1001.16
2023-01-20T00:36:24.243Z,1001.14
2023-01-20T00:37:04.709Z,1001.16
2023-01-20T00:37:45.220Z,1001.21
2023-01-20T00:38:25.747Z,1001.19
2023-01-20T00:39:06.235Z,1001.22
2023-01-20T00:39:46.708Z,1001.21
2023-01-20T00:41:07.703Z,1001.24
2023-01-20T00:41:48.184Z,1001.22
2023-01-20T00:42:28.679Z,1001.25
2023-01-20T00:43:09.170Z,1001.26
2023-01-20T00:43:49.695Z,1001.26
2023-01-20T00:44:30.226Z,1001.26
2023-01-20T00:45:10.855Z,1001.3
2023-01-20T00:45:51.169Z,1001.33
2023-01-20T00:46:31.802Z,1001.34
2023-01-20T00:47:12.195Z,1001.35
2023-01-20T00:47:52.671Z,1001.36
2023-01-20T00:48:33.183Z,1001.38
2023-01-20T00:49:13.631Z,1001.37
2023-01-20T00:49:54.116Z,1001.38
2023-01-20T00:51:15.087Z,1001.39
2023-01-20T00:51:55.574Z,1001.4
2023-01-20T00:52:36.087Z,1001.39
2023-01-20T00:53:16.626Z,1001.39
2023-01-20T00:53:57.145Z,1001.38
2023-01-20T00:54:37.616Z,1001.43
2023-01-20T00:55:18.162Z,1001.38
2023-01-20T00:55:58.670Z,1001.38
2023-01-20T00:56:39.140Z,1001.4
2023-01-20T00:57:19.627Z,1001.41
2023-01-20T00:58:40.643Z,1001.4
2023-01-20T00:59:21.180Z,1001.41
2023-01-20T01:00:01.673Z,1001.36
2023-01-20T01:00:42.990Z,1001.42
2023-01-20T01:01:23.568Z,1001.4
2023-01-20T01:02:04.028Z,1001.4
2023-01-20T01:02:44.396Z,1001.36
2023-01-20T01:03:24.976Z,1001.36
2023-01-20T01:04:05.428Z,1001.43
2023-01-20T01:04:45.916Z,1001.44
2023-01-20T01:05:26.398Z,1001.43
2023-01-20T01:06:06.893Z,1001.47
2023-01-20T01:06:47.377Z,1001.48
2023-01-20T01:07:27.995Z,1001.49
2023-01-20T01:08:08.406Z,1001.48
2023-01-20T01:08:48.909Z,1001.48
2023-01-20T01:09:29.417Z,1001.5
2023-01-20T01:10:09.899Z,1001.48
2023-01-20T01:10:50.433Z,1001.51
2023-01-20T01:11:30.880Z,1001.56
2023-01-20T01:12:11.391Z,1001.54
2023-01-20T01:12:51.900Z,1001.54
2023-01-20T01:13:32.884Z,1001.56
2023-01-20T01:14:13.380Z,1001.58
2023-01-20T01:14:53.856Z,1001.58
2023-01-20T01:16:15.095Z,1001.6
2023-01-20T01:16:57.354Z,1001.59
2023-01-20T01:17:35.893Z,1001.61
2023-01-20T01:18:16.397Z,1001.58
2023-01-20T01:18:56.851Z,1001.59
2023-01-20T01:19:37.353Z,1001.57
2023-01-20T01:20:17.851Z,1001.63
2023-01-20T01:20:58.338Z,1001.6
2023-01-20T01:21:38.782Z,1001.65
2023-01-20T01:22:19.277Z,1001.58
2023-01-20T01:23:40.326Z,1001.61
2023-01-20T01:24:20.821Z,1001.59
2023-01-20T01:25:01.323Z,1001.6
2023-01-20T01:25:41.817Z,1001.58
2023-01-20T01:26:22.312Z,1001.6
2023-01-20T01:27:02.877Z,1001.61
2023-01-20T01:27:43.377Z,1001.63
2023-01-20T01:28:23.887Z,1001.63
2023-01-20T01:29:04.407Z,1001.65
2023-01-20T01:29:44.885Z,1001.64
2023-01-20T01:30:25.410Z,1001.66
2023-01-20T01:31:05.958Z,1001.71
2023-01-20T01:31:46.395Z,1001.68
2023-01-20T01:32:26.886Z,1001.7
2023-01-20T01:33:07.378Z,1001.7
2023-01-20T01:33:47.919Z,1001.74
2023-01-20T01:34:28.399Z,1001.74
2023-01-20T01:35:08.857Z,1001.79
2023-01-20T01:35:49.380Z,1001.77
2023-01-20T01:36:29.861Z,1001.77
2023-01-20T01:37:10.367Z,1001.77
2023-01-20T01:37:50.926Z,1001.79
2023-01-20T01:38:31.355Z,1001.8
2023-01-20T01:39:11.848Z,1001.77
2023-01-20T01:39:52.315Z,1001.81
2023-01-20T01:40:32.820Z,1001.78
2023-01-20T01:41:13.353Z,1001.82
2023-01-20T01:41:53.840Z,1001.83
2023-01-20T01:42:34.330Z,1001.83
2023-01-20T01:43:14.824Z,1001.8
2023-01-20T01:43:55.312Z,1001.83
2023-01-20T01:44:35.788Z,1001.82
2023-01-20T01:45:16.615Z,1001.85
2023-01-20T01:45:56.823Z,1001.83
2023-01-20T01:46:37.305Z,1001.86
2023-01-20T01:47:17.769Z,1001.86
2023-01-20T01:47:58.267Z,1001.86
2023-01-20T01:48:38.798Z,1001.86
2023-01-20T01:49:19.296Z,1001.9
2023-01-20T01:49:59.737Z,1001.92
2023-01-20T01:50:40.239Z,1001.91
2023-01-20T01:51:20.719Z,1001.92
2023-01-20T01:52:01.216Z,1001.97
2023-01-20T01:52:42.617Z,1001.95
2023-01-20T01:53:23.114Z,1001.96
2023-01-20T01:54:03.597Z,1002.01
2023-01-20T01:54:44.082Z,1001.99
2023-01-20T01:55:24.553Z,1001.98
2023-01-20T01:56:05.609Z,1002
2023-01-20T01:56:46.096Z,1002.02
2023-01-20T01:57:26.569Z,1002.03
2023-01-20T01:58:07.061Z,1002.05
2023-01-20T01:58:47.555Z,1002
2023-01-20T01:59:28.043Z,1002.07
2023-01-20T02:00:08.494Z,1002.06
2023-01-20T02:00:49.036Z,1002.07
2023-01-20T02:01:29.574Z,1002.06
2023-01-20T02:02:10.107Z,1002.08
2023-01-20T02:02:50.594Z,1002.09
2023-01-20T02:03:31.107Z,1002.04
2023-01-20T02:04:11.540Z,1002.09
2023-01-20T02:04:52.042Z,1002.05
2023-01-20T02:05:32.544Z,1002.06
2023-01-20T02:06:13.029Z,1002.03
2023-01-20T02:06:53.547Z,1002.05
2023-01-20T02:07:34.010Z,1002.05
2023-01-20T02:08:14.526Z,1001.99
2023-01-20T02:08:54.969Z,1001.98
2023-01-20T02:09:35.492Z,1002.04
2023-01-20T02:10:16.893Z,1001.98
2023-01-20T02:10:57.328Z,1002.02
2023-01-20T02:11:37.852Z,1001.99
2023-01-20T02:12:18.351Z,1001.98
2023-01-20T02:12:58.824Z,1001.98
2023-01-20T02:13:39.349Z,1002.01
2023-01-20T02:14:19.812Z,1001.98
2023-01-20T02:15:00.317Z,1002
2023-01-20T02:15:40.854Z,1001.96
2023-01-20T02:16:21.339Z,1002
2023-01-20T02:17:01.923Z,1001.99
2023-01-20T02:17:43.113Z,1001.98
2023-01-20T02:18:23.559Z,1001.99
2023-01-20T02:19:04.020Z,1002
2023-01-20T02:19:44.491Z,1002
2023-01-20T02:20:25.035Z,1001.99
2023-01-20T02:21:05.500Z,1002.05
2023-01-20T02:21:46.022Z,1002.05
2023-01-20T02:22:26.474Z,1002.04
2023-01-20T02:23:06.942Z,1002.06
2023-01-20T02:23:47.429Z,1002.06
2023-01-20T02:24:27.897Z,1002.08
2023-01-20T02:25:08.371Z,1002.04
2023-01-20T02:25:48.835Z,1002.1
2023-01-20T02:26:29.327Z,1002.11
2023-01-20T02:27:09.838Z,1002.16
2023-01-20T02:27:50.462Z,1002.13
2023-01-20T02:28:30.982Z,1002.16
2023-01-20T02:29:11.519Z,1002.1
2023-01-20T02:29:52.008Z,1002.13
2023-01-20T02:30:32.574Z,1002.17
2023-01-20T02:31:13.082Z,1002.17
2023-01-20T02:31:53.562Z,1002.17
2023-01-20T02:33:14.485Z,1002.18
2023-01-20T02:33:54.977Z,1002.2
2023-01-20T02:34:35.457Z,1002.2
2023-01-20T02:35:16.262Z,1002.15
2023-01-20T02:35:56.537Z,1002.21
2023-01-20T02:36:36.946Z,1002.18
2023-01-20T02:37:17.454Z,1002.21
2023-01-20T02:37:57.922Z,1002.15
2023-01-20T02:38:38.465Z,1002.17
2023-01-20T02:39:27.164Z,1002.22
2023-01-20T02:39:59.481Z,1002.2
2023-01-20T02:40:39.932Z,1002.2
2023-01-20T02:41:20.413Z,1002.24
2023-01-20T02:42:00.905Z,1002.21
2023-01-20T02:42:41.407Z,1002.23
2023-01-20T02:43:21.882Z,1002.26
2023-01-20T02:44:02.415Z,1002.23
2023-01-20T02:44:42.904Z,1002.28
2023-01-20T02:45:23.390Z,1002.27
2023-01-20T02:46:03.952Z,1002.27
2023-01-20T02:46:44.547Z,1002.31
2023-01-20T02:47:25.016Z,1002.28
2023-01-20T02:48:46.014Z,1002.31
2023-01-20T02:49:26.541Z,1002.29
2023-01-20T02:50:07.056Z,1002.28
2023-01-20T02:50:47.531Z,1002.33
2023-01-20T02:51:28.054Z,1002.31
2023-01-20T02:52:08.544Z,1002.31
2023-01-20T02:52:49.022Z,1002.33
2023-01-20T02:53:29.520Z,1002.36
2023-01-20T02:54:10.037Z,1002.29
2023-01-20T02:54:50.547Z,1002.3
2023-01-20T02:55:31.052Z,1002.32
2023-01-20T02:56:11.585Z,1002.33
2023-01-20T02:56:52.053Z,1002.32
2023-01-20T02:57:32.603Z,1002.32
2023-01-20T02:58:53.611Z,1002.33
2023-01-20T02:59:34.109Z,1002.34
2023-01-20T03:00:14.562Z,1002.32
2023-01-20T03:00:55.076Z,1002.33
2023-01-20T03:01:35.700Z,1002.32
2023-01-20T03:02:16.053Z,1002.34
2023-01-20T03:02:56.541Z,1002.31
2023-01-20T03:03:37.107Z,1002.33
2023-01-20T03:04:17.508Z,1002.3
2023-01-20T03:04:58.075Z,1002.33
2023-01-20T03:05:38.518Z,1002.31
2023-01-20T03:06:19.044Z,1002.32
2023-01-20T03:06:59.516Z,1002.31
2023-01-20T03:07:40.016Z,1002.34
2023-01-20T03:09:01.053Z,1002.32
2023-01-20T03:09:41.547Z,1002.32
2023-01-20T03:10:22.035Z,1002.31
2023-01-20T03:11:02.536Z,1002.34
2023-01-20T03:11:43.057Z,1002.31
2023-01-20T03:12:23.583Z,1002.33
2023-01-20T03:13:04.089Z,1002.33
2023-01-20T03:13:44.583Z,1002.31
2023-01-20T03:14:25.050Z,1002.29
2023-01-20T03:15:05.511Z,1002.31
2023-01-20T03:15:46.048Z,1002.33
2023-01-20T03:16:26.606Z,1002.31
2023-01-20T03:17:07.035Z,1002.28
2023-01-20T03:17:47.507Z,1002.32
2023-01-20T03:18:28.013Z,1002.34
2023-01-20T03:19:08.488Z,1002.29
2023-01-20T03:19:48.945Z,1002.3
2023-01-20T03:20:29.447Z,1002.32
2023-01-20T03:21:09.980Z,1002.32
2023-01-20T03:21:50.447Z,1002.31
2023-01-20T03:24:03.116Z,1002.33
2023-01-20T03:24:44.017Z,1002.33
2023-01-20T03:25:24.501Z,1002.36
2023-01-20T03:26:05.005Z,1002.35
2023-01-20T03:26:45.559Z,1002.4
2023-01-20T03:27:26.000Z,1002.38
2023-01-20T03:28:06.591Z,1002.39
2023-01-20T03:28:47.217Z,1002.45
2023-01-20T03:29:27.727Z,1002.4
2023-01-20T03:30:08.378Z,1002.4
2023-01-20T03:30:48.967Z,1002.4
2023-01-20T03:31:29.533Z,1002.4
2023-01-20T03:32:09.897Z,1002.43
2023-01-20T03:32:50.393Z,1002.43
2023-01-20T03:34:11.454Z,1002.36
2023-01-20T03:34:51.935Z,1002.38
2023-01-20T03:35:32.409Z,1002.37
2023-01-20T03:36:12.894Z,1002.36
2023-01-20T03:36:53.383Z,1002.39
2023-01-20T03:37:33.939Z,1002.33
2023-01-20T03:38:14.403Z,1002.38
2023-01-20T03:38:54.921Z,1002.35
2023-01-20T03:39:35.431Z,1002.36
2023-01-20T03:40:15.944Z,1002.35
2023-01-20T03:40:56.378Z,1002.31
2023-01-20T03:41:36.843Z,1002.34
2023-01-20T03:44:50.670Z,1002.43
2023-01-20T03:45:31.154Z,1002.4
2023-01-20T03:46:11.625Z,1002.39
2023-01-20T03:46:52.083Z,1002.41
2023-01-20T03:47:32.551Z,1002.42
2023-01-20T03:48:13.113Z,1002.43
2023-01-20T03:48:53.601Z,1002.44
2023-01-20T03:49:34.080Z,1002.45
2023-01-20T03:50:14.573Z,1002.49
2023-01-20T03:50:55.052Z,1002.5
2023-01-20T03:51:35.562Z,1002.52
2023-01-20T03:52:16.044Z,1002.53
2023-01-20T03:52:56.557Z,1002.56
2023-01-20T03:53:37.066Z,1002.51
2023-01-20T03:54:17.537Z,1002.59
2023-01-20T03:54:58.060Z,1002.57
2023-01-20T03:55:38.542Z,1002.59
2023-01-20T03:56:59.493Z,1002.59
2023-01-20T03:57:39.982Z,1002.64
2023-01-20T03:58:20.475Z,1002.62
2023-01-20T03:59:00.952Z,1002.62
2023-01-20T03:59:41.465Z,1002.61
2023-01-20T04:00:21.924Z,1002.64
2023-01-20T04:01:02.550Z,1002.6
2023-01-20T04:01:43.022Z,1002.64
2023-01-20T04:02:23.753Z,1002.62
2023-01-20T04:03:04.113Z,1002.64
2023-01-20T04:03:44.629Z,1002.59
2023-01-20T04:04:25.094Z,1002.61
2023-01-20T04:05:05.588Z,1002.59
2023-01-20T04:05:46.091Z,1002.59
2023-01-20T04:06:26.604Z,1002.57
2023-01-20T04:07:07.096Z,1002.58
2023-01-20T04:07:47.563Z,1002.58
2023-01-20T04:08:28.066Z,1002.59
2023-01-20T04:09:08.596Z,1002.6
2023-01-20T04:09:49.146Z,1002.59
2023-01-20T04:10:29.632Z,1002.6
2023-01-20T04:11:10.101Z,1002.6
2023-01-20T04:11:50.617Z,1002.6
2023-01-20T04:12:31.104Z,1002.59
2023-01-20T04:13:11.581Z,1002.6
2023-01-20T04:14:32.570Z,1002.61
2023-01-20T04:15:13.425Z,1002.64
2023-01-20T04:15:53.647Z,1002.61
2023-01-20T04:16:34.006Z,1002.69
2023-01-20T04:17:14.545Z,1002.71
2023-01-20T04:17:55.010Z,1002.65
2023-01-20T04:18:35.548Z,1002.65
2023-01-20T04:19:16.000Z,1002.65
2023-01-20T04:19:56.489Z,1002.67
2023-01-20T04:20:37.002Z,1002.67
2023-01-20T04:21:57.961Z,1002.66
2023-01-20T04:22:38.435Z,1002.7
2023-01-20T04:23:18.945Z,1002.67
2023-01-20T04:23:59.447Z,1002.66
2023-01-20T04:24:39.886Z,1002.71
2023-01-20T04:25:20.342Z,1002.69
2023-01-20T04:26:00.853Z,1002.67
2023-01-20T04:26:41.331Z,1002.69
2023-01-20T04:27:21.808Z,1002.72
2023-01-20T04:28:02.301Z,1002.72
2023-01-20T04:28:42.837Z,1002.73
2023-01-20T04:29:23.328Z,1002.77
2023-01-20T04:30:03.748Z,1002.76
2023-01-20T04:30:44.303Z,1002.8
2023-01-20T04:31:30.749Z,1002.81
2023-01-20T04:32:06.322Z,1002.8
2023-01-20T04:32:46.761Z,1002.81
2023-01-20T04:33:27.260Z,1002.79
2023-01-20T04:34:07.815Z,1002.84
2023-01-20T04:34:48.377Z,1002.81
2023-01-20T04:35:28.846Z,1002.83
2023-01-20T04:36:09.324Z,1002.84
2023-01-20T04:36:49.792Z,1002.82
2023-01-20T04:37:30.344Z,1002.85
2023-01-20T04:38:10.792Z,1002.83
2023-01-20T04:38:51.292Z,1002.84
2023-01-20T04:39:32.005Z,1002.85
2023-01-20T04:40:12.493Z,1002.85
2023-01-20T04:40:52.983Z,1002.87
2023-01-20T04:41:33.471Z,1002.87
2023-01-20T04:42:13.901Z,1002.86
2023-01-20T04:45:27.947Z,1002.87
2023-01-20T04:46:09.162Z,1002.91
2023-01-20T04:46:49.659Z,1002.92
2023-01-20T04:47:30.135Z,1002.91
2023-01-20T04:48:10.644Z,1002.92
2023-01-20T04:48:51.114Z,1002.92
2023-01-20T04:49:31.579Z,1002.92
2023-01-20T04:50:12.060Z,1002.93
2023-01-20T04:50:52.557Z,1002.94
2023-01-20T04:51:33.032Z,1002.98
2023-01-20T04:52:13.591Z,1002.97
2023-01-20T04:52:54.144Z,1002.99
2023-01-20T04:53:34.639Z,1003.02
2023-01-20T04:54:15.134Z,1003.01
2023-01-20T04:54:55.624Z,1003.02
2023-01-20T04:55:36.142Z,1003.04
2023-01-20T04:56:16.656Z,1003.01
2023-01-20T04:56:57.261Z,1003.01
2023-01-20T04:57:37.713Z,1002.98
2023-01-20T04:58:18.259Z,1003.03
2023-01-20T04:58:58.729Z,1003.01
2023-01-20T04:59:39.256Z,1003
2023-01-20T05:00:19.941Z,1002.96
2023-01-20T05:01:00.423Z,1002.98
2023-01-20T05:02:21.514Z,1002.96
2023-01-20T05:05:40.205Z,1002.94
2023-01-20T05:06:20.734Z,1002.99
2023-01-20T05:07:01.268Z,1003.04
2023-01-20T05:07:41.717Z,1003.02
2023-01-20T05:08:22.226Z,1003.01
2023-01-20T05:09:02.693Z,1003.03
2023-01-20T05:09:43.187Z,1003.06
2023-01-20T05:10:23.675Z,1003.03
2023-01-20T05:11:04.175Z,1003.04
2023-01-20T05:11:44.656Z,1003.09
2023-01-20T05:12:25.164Z,1003.06
2023-01-20T05:15:45.031Z,1003.04
2023-01-20T05:16:25.406Z,1003.04
2023-01-20T05:17:05.912Z,1003.03
2023-01-20T05:17:46.401Z,1003.02
2023-01-20T05:18:26.913Z,1003.03
2023-01-20T05:19:48.125Z,1003.03
2023-01-20T05:20:30.712Z,1003.01
2023-01-20T05:21:10.696Z,1002.99
2023-01-20T05:21:51.252Z,1003.06
2023-01-20T05:22:31.753Z,1003.03
2023-01-20T05:23:12.268Z,1003.02
2023-01-20T05:23:53.573Z,1003.03
2023-01-20T05:24:34.769Z,1003.03
2023-01-20T05:25:14.908Z,1003.04
2023-01-20T05:25:55.105Z,1003.04
2023-01-20T05:27:16.108Z,1003.06
2023-01-20T05:27:56.639Z,1003.09
2023-01-20T05:28:37.107Z,1003.08
2023-01-20T05:29:17.664Z,1003.08
2023-01-20T05:32:52.374Z,1003.15
2023-01-20T05:33:32.879Z,1003.16
2023-01-20T05:34:13.356Z,1003.17
2023-01-20T05:34:53.829Z,1003.2
2023-01-20T05:35:34.368Z,1003.15
2023-01-20T05:36:15.001Z,1003.18
2023-01-20T05:36:55.509Z,1003.22
2023-01-20T05:37:35.983Z,1003.19
2023-01-20T05:38:16.473Z,1003.22
2023-01-20T05:38:56.971Z,1003.2
2023-01-20T05:39:37.501Z,1003.23
2023-01-20T05:40:18.003Z,1003.22
2023-01-20T05:40:58.580Z,1003.28
2023-01-20T05:41:39.083Z,1003.24
2023-01-20T05:42:19.610Z,1003.27
2023-01-20T05:43:00.215Z,1003.19
2023-01-20T05:43:40.617Z,1003.22
2023-01-20T05:44:21.169Z,1003.22
2023-01-20T05:45:01.859Z,1003.24
2023-01-20T05:45:42.408Z,1003.23
2023-01-20T05:46:22.946Z,1003.27
2023-01-20T05:47:03.388Z,1003.28
2023-01-20T05:47:43.874Z,1003.27
2023-01-20T05:51:02.915Z,1003.3
2023-01-20T05:51:43.074Z,1003.32
2023-01-20T05:52:23.519Z,1003.31
2023-01-20T05:53:04.097Z,1003.3
2023-01-20T05:53:44.627Z,1003.31
2023-01-20T06:31:11.911Z,1003.61
2023-01-20T06:31:52.403Z,1003.65
2023-01-20T06:32:32.897Z,1003.64
2023-01-20T06:33:13.463Z,1003.68
2023-01-20T06:33:54.023Z,1003.67
2023-01-20T06:34:34.690Z,1003.68
2023-01-20T06:35:15.454Z,1003.63
2023-01-20T06:35:55.671Z,1003.67
2023-01-20T06:36:36.228Z,1003.69
2023-01-20T06:37:18.046Z,1003.67
2023-01-20T06:37:59.218Z,1003.72
2023-01-20T06:38:39.106Z,1003.7
2023-01-20T06:41:38.945Z,1003.64
2023-01-20T06:42:19.544Z,1003.63
2023-01-20T06:43:00.141Z,1003.65
2023-01-20T06:46:30.086Z,1003.64
2023-01-20T06:47:10.842Z,1003.69
2023-01-20T06:47:51.346Z,1003.7
2023-01-20T06:48:31.944Z,1003.75
2023-01-20T06:49:12.563Z,1003.73
2023-01-20T06:49:53.031Z,1003.74
2023-01-20T06:50:33.555Z,1003.73
2023-01-20T06:51:15.021Z,1003.76
2023-01-20T06:51:56.028Z,1003.8
2023-01-20T06:52:36.436Z,1003.8
2023-01-20T06:53:16.880Z,1003.81
2023-01-20T06:53:57.446Z,1003.85
2023-01-20T06:54:38.584Z,1003.84
2023-01-20T06:55:18.569Z,1003.84
2023-01-20T06:55:59.068Z,1003.9
2023-01-20T06:56:39.603Z,1003.87
2023-01-20T06:57:20.078Z,1003.9
2023-01-20T06:58:00.554Z,1003.91
2023-01-20T06:58:41.036Z,1003.9
2023-01-20T06:59:21.515Z,1003.91
2023-01-20T07:00:02.082Z,1003.91
2023-01-20T07:00:42.644Z,1003.92
2023-01-20T07:01:23.255Z,1003.92
2023-01-20T07:02:03.638Z,1003.91
2023-01-20T07:02:44.190Z,1003.91
2023-01-20T07:03:25.459Z,1003.88
2023-01-20T07:06:24.298Z,1003.88
2023-01-20T07:07:05.434Z,1003.92
2023-01-20T07:07:45.976Z,1003.95
2023-01-20T07:08:26.507Z,1003.96
2023-01-20T07:09:07.039Z,1003.97
2023-01-20T07:09:47.529Z,1003.94
2023-01-20T07:13:01.530Z,1004.09
2023-01-20T07:16:32.658Z,1004.05
2023-01-20T07:17:13.214Z,1004.07
2023-01-20T07:20:47.361Z,1004.14
2023-01-20T07:21:28.153Z,1004.15
2023-01-20T07:22:08.642Z,1004.16
2023-01-20T07:22:49.109Z,1004.13
2023-01-20T07:23:29.618Z,1004.17
2023-01-20T07:24:10.154Z,1004.17
2023-01-20T07:24:50.709Z,1004.17
2023-01-20T07:25:31.401Z,1004.15
2023-01-20T07:26:11.893Z,1004.15
2023-01-20T07:28:51.965Z,1004.17
2023-01-20T07:29:33.500Z,1004.14
2023-01-20T07:32:12.273Z,1004.18
2023-01-20T07:32:52.911Z,1004.18
2023-01-20T07:33:33.559Z,1004.17
2023-01-20T07:34:14.036Z,1004.15
2023-01-20T07:35:35.071Z,1004.2
2023-01-20T07:36:16.339Z,1004.2
2023-01-20T07:36:56.932Z,1004.23
2023-01-20T07:37:37.450Z,1004.19
2023-01-20T07:38:18.088Z,1004.22
2023-01-20T07:38:58.619Z,1004.26
2023-01-20T07:39:39.902Z,1004.28
2023-01-20T07:40:20.441Z,1004.31
2023-01-20T07:41:02.500Z,1004.3
2023-01-20T07:41:42.327Z,1004.29
2023-01-20T07:42:22.873Z,1004.24
2023-01-20T07:43:44.166Z,1004.28
2023-01-20T07:44:24.919Z,1004.27
2023-01-20T07:45:05.459Z,1004.31
2023-01-20T07:45:45.949Z,1004.32
2023-01-20T07:46:27.136Z,1004.34
2023-01-20T07:47:08.375Z,1004.38
2023-01-20T07:47:48.879Z,1004.38
2023-01-20T07:48:29.596Z,1004.41
2023-01-20T07:49:12.378Z,1004.38
2023-01-20T07:49:52.677Z,1004.41
2023-01-20T07:50:33.167Z,1004.42
2023-01-20T07:51:14.036Z,1004.44
2023-01-20T07:51:55.963Z,1004.44
2023-01-20T07:52:38.271Z,1004.46
2023-01-20T07:53:18.792Z,1004.47
2023-01-20T07:54:01.199Z,1004.5
2023-01-20T07:54:41.849Z,1004.5
2023-01-20T07:55:25.133Z,1004.55
2023-01-20T07:56:05.528Z,1004.58
2023-01-20T07:56:52.938Z,1004.56
2023-01-20T07:57:34.742Z,1004.54
2023-01-20T07:58:17.205Z,1004.55
2023-01-20T07:58:57.598Z,1004.56
2023-01-20T07:59:38.186Z,1004.57
2023-01-20T08:00:18.695Z,1004.6
2023-01-20T08:01:00.333Z,1004.59
2023-01-20T08:01:41.348Z,1004.63
2023-01-20T08:02:21.603Z,1004.62
2023-01-20T08:03:09.362Z,1004.63
2023-01-20T08:03:51.829Z,1004.57
2023-01-20T08:04:36.522Z,1004.65
2023-01-20T08:05:20.959Z,1004.65
2023-01-20T08:06:02.548Z,1004.64
2023-01-20T08:07:25.763Z,1004.65
2023-01-20T08:08:07.864Z,1004.66
2023-01-20T08:08:48.486Z,1004.66
2023-01-20T08:14:28.914Z,1004.79
2023-01-20T08:15:10.258Z,1004.77
2023-01-20T08:15:51.149Z,1004.77
2023-01-20T08:16:32.094Z,1004.78
2023-01-20T08:17:12.588Z,1004.8
2023-01-20T08:17:53.148Z,1004.8
2023-01-20T08:18:33.704Z,1004.81
2023-01-20T08:19:15.002Z,1004.81
2023-01-20T08:19:55.967Z,1004.76
2023-01-20T08:20:36.495Z,1004.73
2023-01-20T08:21:17.109Z,1004.74
2023-01-20T08:21:58.174Z,1004.77
2023-01-20T08:22:38.699Z,1004.77
2023-01-20T08:26:00.014Z,1004.78
2023-01-20T08:29:16.188Z,1004.79
2023-01-20T08:29:58.129Z,1004.81
2023-01-20T08:30:39.587Z,1004.83
2023-01-20T08:31:22.339Z,1004.82
2023-01-20T08:32:04.092Z,1004.86
2023-01-20T08:32:45.985Z,1004.86
2023-01-20T08:33:27.313Z,1004.85
2023-01-20T08:34:08.449Z,1004.84
2023-01-20T08:34:49.665Z,1004.87
2023-01-20T08:35:30.557Z,1004.86
2023-01-20T08:36:11.739Z,1004.91
2023-01-20T08:36:52.880Z,1004.91
2023-01-20T08:37:33.861Z,1004.96
2023-01-20T08:38:14.945Z,1004.96
2023-01-20T08:38:56.836Z,1004.98
2023-01-20T08:39:38.034Z,1004.98
2023-01-20T08:40:20.553Z,1005.03
2023-01-20T08:41:03.356Z,1005.03
2023-01-20T08:41:44.552Z,1005.07
2023-01-20T08:42:25.550Z,1005.07
2023-01-20T08:43:47.677Z,1005.05
2023-01-20T08:44:28.809Z,1005.04
2023-01-20T08:45:10.123Z,1005.1
2023-01-20T08:45:52.038Z,1005.07
2023-01-20T08:46:34.600Z,1005.06
2023-01-20T08:47:15.729Z,1005.08
2023-01-20T08:48:02.630Z,1005.11
2023-01-20T08:51:58.000Z,1005.05
2023-01-20T08:52:40.158Z,1005.02
2023-01-20T08:53:21.394Z,1005.06
2023-01-20T08:54:02.423Z,1005.04
2023-01-20T08:54:43.656Z,1005.04
2023-01-20T08:55:24.795Z,1005.06
2023-01-20T08:56:05.809Z,1005.04
2023-01-20T08:56:47.511Z,1005.03
2023-01-20T08:57:28.605Z,1005
2023-01-20T08:58:09.901Z,1005.01
2023-01-20T08:58:50.967Z,1004.98
2023-01-20T08:59:32.047Z,1005
2023-01-20T09:02:46.357Z,1005.07
2023-01-20T09:03:31.105Z,1005.07
2023-01-20T09:06:49.710Z,1005.12
2023-01-20T09:07:30.425Z,1005.15
2023-01-20T09:08:10.913Z,1005.14
2023-01-20T09:08:51.453Z,1005.15
2023-01-20T09:09:32.119Z,1005.11
2023-01-20T09:10:12.804Z,1005.17
2023-01-20T09:10:53.301Z,1005.14
2023-01-20T09:12:14.377Z,1005.18
2023-01-20T09:12:54.921Z,1005.11
2023-01-20T09:13:36.450Z,1005.13
2023-01-20T09:19:29.821Z,1005.09
2023-01-20T09:20:12.744Z,1005.07
2023-01-20T09:20:53.863Z,1005.1
2023-01-20T09:21:34.787Z,1005.13
2023-01-20T09:22:16.606Z,1005.09
2023-01-20T09:22:57.015Z,1005.11
2023-01-20T09:23:38.838Z,1005.11
2023-01-20T09:26:34.117Z,1005.1
2023-01-20T09:26:59.820Z,1005.1
2023-01-20T09:27:40.380Z,1005.03
2023-01-20T09:28:20.949Z,1005.02
2023-01-20T09:29:01.467Z,1005.05
2023-01-20T09:29:42.099Z,1005.06
2023-01-20T09:30:22.438Z,1005.07
2023-01-20T09:31:03.281Z,1005.08
2023-01-20T09:31:43.872Z,1005.05
2023-01-20T09:32:24.297Z,1005.08
2023-01-20T09:33:04.750Z,1005.04
2023-01-20T09:33:45.302Z,1005.05
2023-01-20T09:34:25.808Z,1005.03
2023-01-20T09:35:06.291Z,1005.03
2023-01-20T09:35:46.856Z,1005.03
2023-01-20T09:36:28.618Z,1005.02
2023-01-20T09:37:08.069Z,1005.02
2023-01-20T09:37:48.580Z,1005
2023-01-20T09:38:29.078Z,1005.02
2023-01-20T09:39:50.131Z,1005.05
2023-01-20T09:40:30.561Z,1005.08
2023-01-20T09:41:11.078Z,1005.1
2023-01-20T09:41:51.604Z,1005.08
2023-01-20T09:42:32.139Z,1005.06
2023-01-20T09:43:12.676Z,1005.1
2023-01-20T09:43:53.226Z,1005.12
2023-01-20T09:44:33.797Z,1005.08
2023-01-20T09:45:14.800Z,1005.12
2023-01-20T09:45:55.153Z,1005.13
2023-01-20T09:46:35.861Z,1005.11
2023-01-20T09:47:16.285Z,1005.1
2023-01-20T09:47:56.879Z,1005.11
2023-01-20T09:48:37.393Z,1005.12
2023-01-20T09:49:17.935Z,1005.12
2023-01-20T09:49:58.488Z,1005.1
2023-01-20T09:50:39.026Z,1005.13
2023-01-20T09:51:19.554Z,1005.12
2023-01-20T09:52:00.138Z,1005.13
2023-01-20T09:52:40.662Z,1005.13
2023-01-20T09:53:21.158Z,1005.15
2023-01-20T09:54:01.725Z,1005.13
2023-01-20T09:54:42.268Z,1005.12
2023-01-20T09:55:22.943Z,1005.12
2023-01-20T09:56:03.483Z,1005.19
2023-01-20T09:56:44.624Z,1005.14
2023-01-20T09:57:24.847Z,1005.21
2023-01-20T09:58:05.405Z,1005.16
2023-01-20T09:58:45.917Z,1005.2
2023-01-20T09:59:27.709Z,1005.16
2023-01-20T10:00:07.109Z,1005.16
2023-01-20T10:00:47.672Z,1005.19
2023-01-20T10:01:28.329Z,1005.16
2023-01-20T10:02:08.764Z,1005.21
2023-01-20T10:03:29.798Z,1005.19
2023-01-20T10:04:10.490Z,1005.19
2023-01-20T10:04:51.004Z,1005.18
2023-01-20T10:05:31.676Z,1005.19
2023-01-20T10:06:12.146Z,1005.24
2023-01-20T10:06:52.643Z,1005.17
2023-01-20T10:07:33.196Z,1005.23
2023-01-20T10:08:13.735Z,1005.19
2023-01-20T10:09:04.761Z,1005.19
2023-01-20T10:09:34.879Z,1005.2
2023-01-20T10:10:15.711Z,1005.2
2023-01-20T10:10:55.970Z,1005.14
2023-01-20T10:11:36.510Z,1005.19
2023-01-20T10:12:17.033Z,1005.19
2023-01-20T10:12:57.693Z,1005.16
2023-01-20T10:13:38.434Z,1005.16
2023-01-20T10:14:19.430Z,1005.17
2023-01-20T10:15:00.078Z,1005.14
2023-01-20T10:15:40.644Z,1005.15
2023-01-20T10:16:21.225Z,1005.16
2023-01-20T10:17:02.320Z,1005.15
2023-01-20T10:17:43.642Z,1005.19
2023-01-20T10:18:24.298Z,1005.19
2023-01-20T10:19:04.827Z,1005.2
2023-01-20T10:19:45.345Z,1005.22
2023-01-20T10:20:27.983Z,1005.19
2023-01-20T10:21:06.481Z,1005.21
2023-01-20T10:21:47.042Z,1005.19
2023-01-20T10:22:27.622Z,1005.19
2023-01-20T10:23:08.200Z,1005.19
2023-01-20T10:23:49.564Z,1005.14
2023-01-20T10:24:30.107Z,1005.16
2023-01-20T10:25:10.649Z,1005.18
2023-01-20T10:25:51.154Z,1005.17
2023-01-20T10:26:31.786Z,1005.17
2023-01-20T10:27:12.374Z,1005.13
2023-01-20T10:27:52.990Z,1005.14
2023-01-20T10:28:33.521Z,1005.13
2023-01-20T10:29:14.007Z,1005.12
2023-01-20T10:29:54.566Z,1005.15
2023-01-20T10:32:54.016Z,1005.11
2023-01-20T10:33:34.480Z,1005.09
2023-01-20T10:34:15.039Z,1005.12
2023-01-20T10:34:56.631Z,1005.11
2023-01-20T10:35:36.083Z,1005.12
2023-01-20T10:36:16.639Z,1005.14
2023-01-20T10:39:51.770Z,1005.09
2023-01-20T10:40:34.902Z,1005.11
2023-01-20T10:41:15.880Z,1005.1
2023-01-20T10:41:54.322Z,1005.07
2023-01-20T10:42:34.857Z,1005.09
2023-01-20T10:43:15.378Z,1005.1
2023-01-20T10:46:15.336Z,1005.06
2023-01-20T10:52:26.360Z,1005.06
2023-01-20T10:53:07.278Z,1005.09
2023-01-20T10:53:47.806Z,1005
2023-01-20T10:54:28.316Z,1005.03